AirNav   Pilot Hours Calculator
 
 1648 users online  

N98 Boyne City Municipal Airport
Boyne City, Michigan, USA

GOING TO BOYNE CITY?


FAA INFORMATION EFFECTIVE 04 NOVEMBER 2021

Location

FAA Identifier: N98
Lat/Long: 45-12-31.7284N 084-59-23.5880W
45-12.528807N 084-59.393133W
45.2088134,-84.9898856
(estimated)
Elevation: 659.6 ft. / 201.0 m (surveyed)
Variation: 05W (1985)
From city: 1 mile SE of BOYNE CITY, MI
Time zone: UTC -4 (UTC -5 during Standard Time)
Zip code: 49712

Airport Operations

Airport use: Open to the public
Activation date: 10/1947
Control tower: no
ARTCC: MINNEAPOLIS CENTER
FSS: LANSING FLIGHT SERVICE STATION
NOTAMs facility: LAN (NOTAM-D service available)
Attendance: UNATNDD
Wind indicator: lighted
Segmented circle: yes
Lights: ACTVT REIL RWY 27; PAPI RWY 09; MIRL RWY 09/27 - 122.9.

Airport Communications

CTAF/UNICOM: 122.8
WX AWOS-3 at CVX (13 nm NW): 120.0 (231-237-9703)
WX AWOS-3 at MGN (13 nm N): 119.925 (231-347-5231)
WX AWOS-3 at ACB (16 nm SW): 119.275 (231-533-8941)
WX ASOS at GLR (17 nm SE): 118.375 (989-732-1571)
  • APCH/DEP SVC PRVDD BY MINNEAPOLIS ARTCC (ZMP) ON FREQ 134.6/354.05 (PELLSTON RCAG).

Nearby radio navigation aids

VOR radial/distance  VOR name  Freq  Var
GLRr320/16.9GAYLORD VOR/DME109.2006W
PLNr214/28.8PELLSTON VORTAC111.8006W
CGGr347/(33.5)GRAYLING VOR109.8006W

 
NDB name  Hdg/Dist  Freq  Var  ID
BANGU333/14.037506WGL --. .-..
GRAYLING352/28.435906WGYG --. -.-- --.

Airport Services

Fuel available: 100LL
100LL:SELF SER.
Parking: tiedowns
Bottled oxygen: NONE
Bulk oxygen: NONE

Runway Information

Runway 9/27

Dimensions: 4001 x 75 ft. / 1220 x 23 m
Surface: asphalt, in good condition
Runway edge lights: medium intensity
RUNWAY 9  RUNWAY 27
Latitude: 45-12.543998N45-12.513615N
Longitude: 084-59.858375W084-58.927892W
Elevation: 653.0 ft.656.0 ft.
Traffic pattern: leftleft
Runway heading: 098 magnetic, 093 true278 magnetic, 273 true
Displaced threshold: 599 ft.no
Markings: nonprecision, in good conditionnonprecision, in good condition
Visual slope indicator: 2-light PAPI on left (4.00 degrees glide path)2-light PAPI on left (4.00 degrees glide path)
Runway end identifier lights: yesyes
Touchdown point: yes, no lightsyes, no lights
Obstructions: 19 ft. road, 201 ft. from runway
+6 FT FENCE, 175 FT DIST; 19 FT ROAD, 197 FT DIST.
38 ft. pline, 734 ft. from runway, 135 ft. left of centerline, 14:1 slope to clear
+4 FT FENCE, 0 FT DIST, 125 FT R.

Airport Ownership and Management from official FAA records

Ownership: Publicly-owned
Owner: CITY OF BOYNE CITY
319 N LAKE ST
BOYNE CITY, MI 49712-2111
Phone 231-582-6597
Manager: MICHAEL CAIN
319 N LAKE ST
BOYNE CITY, MI 49712-2111
Phone 231-582-6597

Airport Operational Statistics

Aircraft based on the field: 15
Single engine airplanes: 12
Multi engine airplanes: 1
Helicopters: 2
    
Aircraft operations: avg 25/day *
71% transient general aviation
29% local general aviation
* for 12-month period ending 31 December 2017

Additional Remarks

RWY 27 +250 FT HILL, 2 NM EAST, 16:1; +20 FT TREES, 480 FT DIST, 145 FT R, 14:1.
DEER & BIRDS ON & INVOF ARPT.
+4 FT FENCE PARL TO RWY, 123 FT SOUTH OF CNTRLN.
ADMIN BLDG ACES: PRESS 5, THEN 3 & 2 SIMUL, THEN 1.
FOR CD CTC MINNEAPOLIS ARTCC AT 651-463-5588.
FIRING RANGE NE OF FLD OPRS AT UNSKED TIMES, FOR ADZY CTC BOYNE CITY POLICE DEPT AT 231-582-6611.

Instrument Procedures

NOTE: All procedures below are presented as PDF files. If you need a reader for these files, you should download the free Adobe Reader.

NOT FOR NAVIGATION. Please procure official charts for flight.
FAA instrument procedures published for use from 04 November 2021 at 0901Z to 02 December 2021 at 0900z.

 
IAPs - Instrument Approach Procedures
RNAV (GPS) RWY 09   download (251KB)
RNAV (GPS) RWY 27   download (217KB)
NOTE: Special Take-Off Minimums/Departure Procedures apply   download (272KB)

Other nearby airports with instrument procedures:

KBFA - Boyne Mountain Airport (4 nm SE)
KCVX - Charlevoix Municipal Airport (13 nm NW)
KMGN - Harbor Springs Airport (13 nm N)
KACB - Antrim County Airport (16 nm SW)
KGLR - Gaylord Regional Airport (17 nm SE)
 
Loc | Ops | Rwys | IFR | FBO | Links
Com | Nav | Svcs | Stats | Notes
Area around N98 (Boyne City Municipal Airport)
 
Road maps at: MapQuest Bing Google
 
Aerial photo
WARNING: Photo may not be current or correct
Aerial photo of N98 (Boyne City Municipal Airport)
Do you have a better or more recent aerial photo of Boyne City Municipal Airport that you would like to share? If so, please send us your photo.

 
Sectional chart

 
Airport distance calculator
Flying to Boyne City Municipal Airport? Find the distance to fly.

From to N98

Sunrise and sunset
Times for 01-Dec-2021
 Local
(UTC-5)
 Zulu
(UTC)
Morning civil twilight07:2612:26
Sunrise08:0013:00
Sunset16:5821:58
Evening civil twilight17:3222:32

Current date and time
Zulu (UTC)  01-Dec-2021 19:54:10
Local (UTC-5)  01-Dec-2021 14:54:10
 
METAR
KCVX 
13nm NW 
011935Z AUTO 16009KT 10SM OVC034 02/00 A2975 RMK AO2 T00181001
KMGN 
14nm N 
011935Z AUTO 14003KT 10SM OVC013 01/00 A2977 RMK AO2 T00090000
KACB 
16nm SW 
011935Z AUTO 18006G16KT 10SM BKN016 OVC026 02/00 A2979 RMK AO2 T00221005
KGLR 
17nm SE 
011932Z AUTO 18010KT 1 1/2SM -FZRA BR OVC006 01/M02 A2978 RMK AO2 FZRAE14B32 CIG 004V010 P0000 I1001 T00061017
KPLN 
23nm N 
011923Z AUTO 16007KT 5SM BR SCT009 BKN017 OVC026 01/M01 A2979 RMK AO2 T00061006
TAF
KPLN 
23nm N 
011726Z 0118/0218 18007KT P6SM VCSH OVC040 FM012100 19008KT P6SM VCSH OVC022 WS020/21035KT FM020100 25009KT 6SM -DZ BR OVC016 WS020/23040KT FM020400 23010G19KT 6SM -DZ BR OVC030 WS020/24045KT FM020700 24015G24KT P6SM VCSH BKN040 FM021200 26014G25KT P6SM BKN025
NOTAMs
Click for the latest NOTAMs
NOTAMs are issued by the DoD/FAA and will open in a separate window not controlled by AirNav.

 

 
 

FBO, Fuel Providers, and Aircraft Ground Support

  
 Business Name 
 
 Contact 
 
 Services / Description 
 
Fuel Prices
 
Comments
  
Boyne City Municipal Airport 231-582-6597
no information available

If you are affiliated with Boyne City Municipal Airport and would like to show here your services, contact info, web link, logo, and more, click here
100LL
SS $5.06 
 Updated 29-Nov-2021
 
   1 read write
SS=Self service
Update Fuel Prices
 

Would you like to see your business listed on this page?

 If your business provides an interesting product or service to pilots, flight crews, aircraft, or users of the Boyne City Municipal Airport, you should consider listing it here.  To start the listing process, click on the button below
 
Add a business
 

Other Pages about Boyne City Municipal Airport

Page from the Michigan Airport Directory (PDF)
 
Update a link
 
Copyright © AirNav, LLC. All rights reserved. Privacy Policy  Contact